Big Bear Station Historical Data
Daily Summary for November 1, 2017 Units:  English    Metric   Both
« Previous Day
Next Day »
Daily Weekly Monthly Yearly Custom
  High: Low: Average:
Temperature: 57.7 °F 32.0 °F 42.4 °F
Dew Point: 40.2 °F 24.4 °F 30.9 °F
Humidity: 91 % 31 % 67 %
Wind Speed: 7.8 mph 0.0 mph 1.4 mph
Wind Gust: -999.0 mph - -
Wind:- - West
Pressure: 23.43 in 23.40 in -
Precipitation: 0.00 in    
Historical Graphs
 
 
Tabular Data for November 1, 2017
Time Temperature Dew Point Pressure Wind Wind Speed Wind Gust Humidity Rainfall Rate (Hourly)
00:14 36.7 °F 29.2 °F 23.43 in Calm   -999.0 mph 74 % 0 in
00:29 36.3 °F 27.1 °F 23.42 in Calm   -999.0 mph 69 % 0 in
00:44 36.3 °F 27.8 °F 23.43 in Calm   -999.0 mph 71 % 0 in
01:00 36.1 °F 27.9 °F 23.42 in Calm   -999.0 mph 72 % 0 in
01:15 35.6 °F 27.5 °F 23.42 in Calm   -999.0 mph 72 % 0 in
01:30 35.4 °F 26.9 °F 23.43 in Calm   -999.0 mph 71 % 0 in
01:45 35.8 °F 28.3 °F 23.42 in Calm   -999.0 mph 74 % 0 in
02:00 35.2 °F 28.1 °F 23.42 in Calm   -999.0 mph 75 % 0 in
02:16 34.9 °F 28.4 °F 23.42 in Calm   -999.0 mph 77 % 0 in
02:31 34.5 °F 26.4 °F 23.42 in Calm   -999.0 mph 72 % 0 in
02:46 34.3 °F 25.9 °F 23.42 in Calm   -999.0 mph 71 % 0 in
03:01 33.8 °F 27.4 °F 23.42 in Calm   -999.0 mph 77 % 0 in
03:16 33.8 °F 28.9 °F 23.42 in Calm   -999.0 mph 82 % 0 in
03:32 33.8 °F 28.9 °F 23.42 in Calm   -999.0 mph 82 % 0 in
03:47 33.8 °F 29.2 °F 23.42 in Calm   -999.0 mph 83 % 0 in
04:02 33.8 °F 28.9 °F 23.42 in Calm   -999.0 mph 82 % 0 in
04:17 33.6 °F 28.4 °F 23.42 in Calm   -999.0 mph 81 % 0 in
04:33 33.1 °F 27.3 °F 23.41 in Calm   -999.0 mph 79 % 0 in
04:48 33.3 °F 26.6 °F 23.41 in Calm   -999.0 mph 76 % 0 in
05:03 32.7 °F 26.6 °F 23.41 in Calm   -999.0 mph 78 % 0 in
05:18 32.7 °F 27.2 °F 23.42 in Calm   -999.0 mph 80 % 0 in
05:33 32.7 °F 27.8 °F 23.42 in Calm   -999.0 mph 82 % 0 in
05:49 32.5 °F 28.2 °F 23.41 in Calm   -999.0 mph 84 % 0 in
06:04 32.2 °F 28.2 °F 23.42 in Calm   -999.0 mph 85 % 0 in
06:20 32.2 °F 28.2 °F 23.42 in Calm   -999.0 mph 85 % 0 in
06:35 32.2 °F 28.8 °F 23.42 in Calm   -999.0 mph 87 % 0 in
06:50 32.0 °F 28.6 °F 23.42 in Calm   -999.0 mph 87 % 0 in
07:05 32.0 °F 28.8 °F 23.42 in Calm   -999.0 mph 88 % 0 in
07:20 32.2 °F 29.3 °F 23.42 in Calm   -999.0 mph 89 % 0 in
07:36 32.0 °F 29.4 °F 23.42 in Calm   -999.0 mph 90 % 0 in
07:51 32.5 °F 30.2 °F 23.42 in Calm   -999.0 mph 91 % 0 in
08:06 32.5 °F 29.9 °F 23.42 in Calm   -999.0 mph 90 % 0 in
08:21 32.9 °F 30.3 °F 23.42 in Calm   -999.0 mph 90 % 0 in
08:36 33.4 °F 31.1 °F 23.42 in Calm   -999.0 mph 91 % 0 in
08:52 34.7 °F 31.8 °F 23.43 in Calm   -999.0 mph 89 % 0 in
09:07 35.6 °F 32.4 °F 23.43 in Calm   -999.0 mph 88 % 0 in
09:22 37.4 °F 33.9 °F 23.43 in Calm   -999.0 mph 87 % 0 in
09:38 39.7 °F 35.9 °F 23.43 in Calm   -999.0 mph 86 % 0 in
09:53 43.5 °F 34.4 °F 23.43 in SSE 3.7 mph -999.0 mph 70 % 0 in
10:08 46.9 °F 30.7 °F 23.43 in NNW 2.7 mph -999.0 mph 53 % 0 in
10:24 50.9 °F 30.3 °F 23.43 in NNW 1.7 mph -999.0 mph 45 % 0 in
10:39 54.0 °F 30.2 °F 23.43 in NW 2.2 mph -999.0 mph 40 % 0 in
10:54 54.5 °F 30.7 °F 23.43 in SW 5.3 mph -999.0 mph 40 % 0 in
11:09 56.3 °F 31.6 °F 23.43 in NW 2.7 mph -999.0 mph 39 % 0 in
11:24 55.0 °F 30.5 °F 23.43 in NNW 2.7 mph -999.0 mph 39 % 0 in
11:40 55.6 °F 30.4 °F 23.42 in North 4.7 mph -999.0 mph 38 % 0 in
11:55 55.8 °F 29.9 °F 23.42 in NW 5.8 mph -999.0 mph 37 % 0 in
12:10 57.0 °F 28.9 °F 23.42 in NNW 5.8 mph -999.0 mph 34 % 0 in
12:25 56.3 °F 26.0 °F 23.42 in North 5.8 mph -999.0 mph 31 % 0 in
12:40 57.0 °F 26.6 °F 23.41 in NE 5.3 mph -999.0 mph 31 % 0 in
12:56 57.4 °F 29.2 °F 23.41 in ESE 3.7 mph -999.0 mph 34 % 0 in
13:11 57.7 °F 29.5 °F 23.40 in NW 4.7 mph -999.0 mph 34 % 0 in
13:26 57.4 °F 29.2 °F 23.40 in WNW 7.8 mph -999.0 mph 34 % 0 in
13:41 56.8 °F 29.4 °F 23.40 in WNW 4.2 mph -999.0 mph 35 % 0 in
13:56 57.2 °F 29.8 °F 23.40 in WNW 3.2 mph -999.0 mph 35 % 0 in
14:12 57.2 °F 29.8 °F 23.40 in NW 2.7 mph -999.0 mph 35 % 0 in
14:27 55.2 °F 30.7 °F 23.40 in ESE 3.7 mph -999.0 mph 39 % 0 in
14:42 55.2 °F 32.5 °F 23.40 in WSW 1.7 mph -999.0 mph 42 % 0 in
14:58 54.7 °F 33.2 °F 23.40 in NW 5.3 mph -999.0 mph 44 % 0 in
15:13 54.0 °F 34.2 °F 23.40 in NW 2.2 mph -999.0 mph 47 % 0 in
15:28 52.9 °F 35.7 °F 23.40 in NNE 3.7 mph -999.0 mph 52 % 0 in
15:44 52.3 °F 37.1 °F 23.40 in NNW 2.2 mph -999.0 mph 56 % 0 in
15:59 51.8 °F 37.5 °F 23.40 in NW 4.7 mph -999.0 mph 58 % 0 in
16:14 51.1 °F 36.4 °F 23.40 in NW 4.7 mph -999.0 mph 57 % 0 in
16:29 50.5 °F 35.8 °F 23.40 in NNW 1.1 mph -999.0 mph 57 % 0 in
16:44 50.2 °F 36.4 °F 23.40 in NW 2.7 mph -999.0 mph 59 % 0 in
17:00 49.6 °F 37.1 °F 23.40 in North 1.1 mph -999.0 mph 62 % 0 in
17:15 48.7 °F 37.8 °F 23.40 in NW 3.2 mph -999.0 mph 66 % 0 in
17:30 47.7 °F 37.3 °F 23.40 in North 1.1 mph -999.0 mph 67 % 0 in
17:46 46.8 °F 38.6 °F 23.40 in NW 4.7 mph -999.0 mph 73 % 0 in
18:01 45.7 °F 39.9 °F 23.40 in NW 2.7 mph -999.0 mph 80 % 0 in
18:16 44.4 °F 40.2 °F 23.41 in Calm   -999.0 mph 85 % 0 in
18:31 43.7 °F 39.5 °F 23.41 in NE 2.2 mph -999.0 mph 85 % 0 in
18:46 42.8 °F 39.5 °F 23.41 in Calm   -999.0 mph 88 % 0 in
19:02 42.1 °F 39.1 °F 23.41 in Calm   -999.0 mph 89 % 0 in
19:17 41.4 °F 38.4 °F 23.41 in Calm   -999.0 mph 89 % 0 in
19:32 40.6 °F 37.3 °F 23.41 in Calm   -999.0 mph 88 % 0 in
19:47 40.3 °F 36.7 °F 23.42 in Calm   -999.0 mph 87 % 0 in
20:02 40.1 °F 36.5 °F 23.42 in Calm   -999.0 mph 87 % 0 in
20:18 39.7 °F 34.3 °F 23.42 in Calm   -999.0 mph 81 % 0 in
20:33 39.9 °F 31.9 °F 23.42 in Calm   -999.0 mph 73 % 0 in
20:48 41.5 °F 30.6 °F 23.42 in SSE 1.1 mph -999.0 mph 65 % 0 in
21:03 42.1 °F 30.4 °F 23.42 in Calm   -999.0 mph 63 % 0 in
21:18 42.8 °F 28.6 °F 23.42 in Calm   -999.0 mph 57 % 0 in
21:34 42.1 °F 28.0 °F 23.43 in Calm   -999.0 mph 57 % 0 in
21:49 42.1 °F 27.5 °F 23.43 in Calm   -999.0 mph 56 % 0 in
22:04 41.5 °F 27.4 °F 23.43 in Calm   -999.0 mph 57 % 0 in
22:19 40.6 °F 27.0 °F 23.43 in South 2.2 mph -999.0 mph 58 % 0 in
22:35 40.6 °F 26.6 °F 23.43 in South 1.7 mph -999.0 mph 57 % 0 in
22:50 39.2 °F 26.5 °F 23.43 in Calm   -999.0 mph 60 % 0 in
23:05 37.9 °F 24.4 °F 23.43 in Calm   -999.0 mph 58 % 0 in
23:20 37.2 °F 24.6 °F 23.43 in SSE 1.7 mph -999.0 mph 60 % 0 in
23:35 36.5 °F 27.6 °F 23.43 in Calm   -999.0 mph 70 % 0 in
23:51 36.0 °F 26.1 °F 23.43 in Calm   -999.0 mph 67 % 0 in
Big Bear CA Weather
Compliments of Weather Underground - 1.5 mb